Time;durP1;ratioP1;P1;durP2;ratioP2;P2;SDS_P1;SDS_P2;PMS_P1;PMS_P2;Temp;Humidity;BMP_temperature;BMP_pressure;BME280_temperature;BME280_humidity;BME280_pressure;Samples;Min_cycle;Max_cycle;Signal;HPM_P1;HPM_P2
2023/01/26 00:02:16;;;;;;;31.77;13.77;;;;;;;;;;6182486;23;19997;-81
2023/01/26 00:04:41;;;;;;;35.22;14.25;;;;;;;;;;6183841;23;20005;-81
2023/01/26 00:07:07;;;;;;;35.80;14.07;;;;;;;;;;6184306;23;20001;-82
2023/01/26 00:09:32;;;;;;;34.00;14.40;;;;;;;;;;6182427;23;20459;-82
2023/01/26 00:11:58;;;;;;;26.40;11.10;;;;;;;;;;6183023;23;20332;-81
2023/01/26 00:14:23;;;;;;;36.47;14.85;;;;;;;;;;6182817;23;20009;-81
2023/01/26 00:16:48;;;;;;;30.90;11.95;;;;;;;;;;6183713;23;20325;-82
2023/01/26 00:19:14;;;;;;;34.28;13.35;;;;;;;;;;6183749;23;20008;-81
2023/01/26 00:21:39;;;;;;;33.90;13.77;;;;;;;;;;6133314;23;19997;-81
2023/01/26 00:24:05;;;;;;;27.90;11.02;;;;;;;;;;6184011;23;20013;-81
2023/01/26 00:26:31;;;;;;;32.72;13.63;;;;;;;;;;6182386;23;20002;-81
2023/01/26 00:28:56;;;;;;;32.38;12.25;;;;;;;;;;6182461;23;20013;-83
2023/01/26 00:31:23;;;;;;;28.05;11.35;;;;;;;;;;6182322;23;20441;-83
2023/01/26 00:33:49;;;;;;;36.58;13.35;;;;;;;;;;6184552;23;20001;-83
2023/01/26 00:36:15;;;;;;;39.15;14.30;;;;;;;;;;6183433;23;20001;-83
2023/01/26 00:38:40;;;;;;;31.95;12.88;;;;;;;;;;6184335;23;20084;-82
2023/01/26 00:41:06;;;;;;;34.13;13.70;;;;;;;;;;6158228;23;20001;-81
2023/01/26 00:43:31;;;;;;;33.65;13.93;;;;;;;;;;6182503;23;20345;-81
2023/01/26 00:45:57;;;;;;;42.58;15.00;;;;;;;;;;6157470;23;20032;-81
2023/01/26 00:48:22;;;;;;;35.13;13.50;;;;;;;;;;6182134;23;20013;-81
2023/01/26 00:50:49;;;;;;;39.25;15.98;;;;;;;;;;6182048;23;20013;-81
2023/01/26 00:53:15;;;;;;;38.40;14.45;;;;;;;;;;6157406;23;20055;-80
2023/01/26 00:55:41;;;;;;;39.67;13.65;;;;;;;;;;6182711;23;20009;-81
2023/01/26 00:58:07;;;;;;;29.65;12.63;;;;;;;;;;6184343;23;20412;-81
2023/01/26 01:00:33;;;;;;;37.38;13.70;;;;;;;;;;6134680;23;20088;-82
2023/01/26 01:02:58;;;;;;;27.88;12.15;;;;;;;;;;6185898;23;20079;-81
2023/01/26 01:05:25;;;;;;;43.00;16.92;;;;;;;;;;6184307;23;20012;-80
2023/01/26 01:07:50;;;;;;;35.22;14.65;;;;;;;;;;6159516;23;20001;-80
2023/01/26 01:10:16;;;;;;;31.48;12.52;;;;;;;;;;6185375;23;20059;-81
2023/01/26 01:12:41;;;;;;;46.47;16.00;;;;;;;;;;6185293;23;19997;-81
2023/01/26 01:15:07;;;;;;;37.33;16.13;;;;;;;;;;6158748;23;20005;-82
2023/01/26 01:17:35;;;;;;;30.42;12.65;;;;;;;;;;6134750;23;20016;-80
2023/01/26 01:20:01;;;;;;;44.88;16.02;;;;;;;;;;6159640;23;20012;-81
2023/01/26 01:22:27;;;;;;;40.42;16.33;;;;;;;;;;6185316;23;19997;-81
2023/01/26 01:24:53;;;;;;;41.08;14.60;;;;;;;;;;6184005;23;20339;-81
2023/01/26 01:27:19;;;;;;;35.40;13.50;;;;;;;;;;6184023;23;20055;-80
2023/01/26 01:29:44;;;;;;;27.75;13.00;;;;;;;;;;6183785;23;20009;-81
2023/01/26 01:32:10;;;;;;;36.28;13.98;;;;;;;;;;6185459;23;20008;-80
2023/01/26 01:34:35;;;;;;;37.53;13.75;;;;;;;;;;6185212;23;20005;-81
2023/01/26 01:37:01;;;;;;;51.10;16.08;;;;;;;;;;6185516;23;20004;-81
2023/01/26 01:39:26;;;;;;;35.65;13.88;;;;;;;;;;6185574;23;20387;-81
2023/01/26 01:41:52;;;;;;;35.10;12.48;;;;;;;;;;6134711;23;20005;-81
2023/01/26 01:44:22;;;;;;;36.50;14.00;;;;;;;;;;6185320;23;20356;-81
2023/01/26 01:47:00;;;;;;;46.38;15.98;;;;;;;;;;6185274;23;20007;-81
2023/01/26 01:49:31;;;;;;;43.40;15.48;;;;;;;;;;6183685;23;20005;-81
2023/01/26 01:52:11;;;;;;;35.30;14.68;;;;;;;;;;6134836;23;20067;-81
2023/01/26 01:54:47;;;;;;;38.55;12.02;;;;;;;;;;6159831;23;20341;-80
2023/01/26 01:57:16;;;;;;;24.98;10.70;;;;;;;;;;6167364;23;20008;-81
2023/01/26 01:59:44;;;;;;;37.38;14.95;;;;;;;;;;6186366;23;20001;-81
2023/01/26 02:02:27;;;;;;;35.85;14.98;;;;;;;;;;6165478;23;20005;-79
2023/01/26 02:04:54;;;;;;;36.28;14.20;;;;;;;;;;6195596;23;20012;-80
2023/01/26 02:07:19;;;;;;;39.13;16.20;;;;;;;;;;6167486;23;20005;-81
2023/01/26 02:12:29;;;;;;;46.95;19.58;;;;;;;;;;6183639;23;20347;-80
2023/01/26 02:14:55;;;;;;;44.03;14.82;;;;;;;;;;6158756;23;20015;-81
2023/01/26 02:17:21;;;;;;;47.17;17.20;;;;;;;;;;6159207;23;20016;-81
2023/01/26 02:20:02;;;;;;;43.85;16.73;;;;;;;;;;6159048;23;20338;-81
2023/01/26 02:22:35;;;;;;;39.65;15.25;;;;;;;;;;6183653;23;20001;-80
2023/01/26 02:25:12;;;;;;;40.20;16.10;;;;;;;;;;6183472;23;20073;-81
2023/01/26 02:27:37;;;;;;;42.70;18.40;;;;;;;;;;6183502;23;20008;-82
2023/01/26 02:30:03;;;;;;;38.60;15.73;;;;;;;;;;6159127;23;20005;-82
2023/01/26 02:32:28;;;;;;;49.33;19.10;;;;;;;;;;6185557;23;20076;-81
2023/01/26 02:34:56;;;;;;;39.85;16.40;;;;;;;;;;6185419;23;20369;-81
2023/01/26 02:37:21;;;;;;;47.53;17.13;;;;;;;;;;6183425;23;19997;-82
2023/01/26 02:39:52;;;;;;;54.13;21.50;;;;;;;;;;6183320;23;20001;-81
2023/01/26 02:45:01;;;;;;;44.20;15.85;;;;;;;;;;6183247;23;19911;-82
2023/01/26 02:47:27;;;;;;;46.17;17.42;;;;;;;;;;6183272;23;20009;-82
2023/01/26 02:49:52;;;;;;;48.17;17.35;;;;;;;;;;6184480;23;20005;-82
2023/01/26 02:52:22;;;;;;;42.08;15.77;;;;;;;;;;6185003;23;20012;-81
2023/01/26 02:57:33;;;;;;;43.53;17.85;;;;;;;;;;6161847;23;20436;-81
2023/01/26 02:59:59;;;;;;;47.72;16.30;;;;;;;;;;6184575;23;20005;-81
2023/01/26 03:02:24;;;;;;;46.08;18.10;;;;;;;;;;6184773;23;20088;-82
2023/01/26 03:04:50;;;;;;;47.75;19.48;;;;;;;;;;6158470;23;20092;-81
2023/01/26 03:07:15;;;;;;;52.10;17.90;;;;;;;;;;6184469;23;20429;-82
2023/01/26 03:09:41;;;;;;;58.15;21.48;;;;;;;;;;6184698;23;20461;-81
2023/01/26 03:12:06;;;;;;;52.50;21.70;;;;;;;;;;6182564;23;20428;-82
2023/01/26 03:14:31;;;;;;;40.08;15.85;;;;;;;;;;6182827;23;20471;-82
2023/01/26 03:16:57;;;;;;;52.50;18.20;;;;;;;;;;6182953;23;20058;-83
2023/01/26 03:27:41;;;;;;;58.10;21.90;;;;;;;;;;6182770;23;20016;-82
2023/01/26 03:30:07;;;;;;;52.30;20.45;;;;;;;;;;6183676;23;20063;-82
2023/01/26 03:32:32;;;;;;;56.47;21.05;;;;;;;;;;6182646;23;20388;-82
2023/01/26 03:34:58;;;;;;;48.45;18.20;;;;;;;;;;6184182;23;20005;-82
2023/01/26 03:37:23;;;;;;;47.80;18.30;;;;;;;;;;6184922;23;20048;-82
2023/01/26 03:56:33;;;;;;;49.33;18.33;;;;;;;;;;6182813;23;20039;-80
2023/01/26 03:59:09;;;;;;;50.47;18.77;;;;;;;;;;6158669;23;20009;-82
2023/01/26 04:01:36;;;;;;;49.58;18.65;;;;;;;;;;6161394;23;19993;-82
2023/01/26 04:09:31;;;;;;;49.58;18.77;;;;;;;;;;6182480;23;20016;-82
2023/01/26 04:11:57;;;;;;;49.13;20.00;;;;;;;;;;6133040;23;20009;-82
2023/01/26 04:22:39;;;;;;;62.10;22.40;;;;;;;;;;6182413;23;20012;-82
2023/01/26 04:25:07;;;;;;;54.35;21.95;;;;;;;;;;6184025;23;20507;-82
2023/01/26 04:27:33;;;;;;;53.38;22.10;;;;;;;;;;6182824;23;20001;-82
2023/01/26 04:30:00;;;;;;;51.75;20.52;;;;;;;;;;6182301;23;20001;-82
2023/01/26 04:32:26;;;;;;;56.63;21.75;;;;;;;;;;6183748;23;20005;-82
2023/01/26 04:34:51;;;;;;;54.00;21.33;;;;;;;;;;6185085;23;20084;-81
2023/01/26 04:37:17;;;;;;;62.75;22.58;;;;;;;;;;6184570;23;20001;-80
2023/01/26 04:39:42;;;;;;;56.17;19.92;;;;;;;;;;6184648;23;20005;-83
2023/01/26 04:42:07;;;;;;;46.30;18.58;;;;;;;;;;6186241;23;20008;-81
2023/01/26 04:44:33;;;;;;;51.38;20.00;;;;;;;;;;6185876;23;20012;-81
2023/01/26 04:46:58;;;;;;;40.70;17.13;;;;;;;;;;6160267;23;20005;-82
2023/01/26 04:49:24;;;;;;;50.15;20.73;;;;;;;;;;6186348;23;20364;-82
2023/01/26 04:51:49;;;;;;;60.92;24.30;;;;;;;;;;6185566;23;20340;-83
2023/01/26 04:54:15;;;;;;;52.95;19.60;;;;;;;;;;6184384;23;20083;-82
2023/01/26 04:56:40;;;;;;;61.83;21.90;;;;;;;;;;6185717;23;20075;-82
2023/01/26 04:59:06;;;;;;;52.53;20.85;;;;;;;;;;6184591;23;20012;-82
2023/01/26 05:01:32;;;;;;;46.60;19.15;;;;;;;;;;6159774;23;20395;-82
2023/01/26 05:04:01;;;;;;;56.22;21.90;;;;;;;;;;6184516;23;20095;-82
2023/01/26 05:06:26;;;;;;;50.08;18.42;;;;;;;;;;6188780;23;20024;-82
2023/01/26 05:08:52;;;;;;;58.83;21.17;;;;;;;;;;6188850;23;20004;-82
2023/01/26 05:11:18;;;;;;;55.22;21.83;;;;;;;;;;6189241;23;20361;-81
2023/01/26 05:13:45;;;;;;;56.33;21.60;;;;;;;;;;6189048;23;20336;-81
2023/01/26 05:16:12;;;;;;;41.90;17.02;;;;;;;;;;6186230;23;20369;-82
2023/01/26 05:18:38;;;;;;;44.85;17.90;;;;;;;;;;6186545;23;20056;-82
2023/01/26 05:21:03;;;;;;;55.42;22.95;;;;;;;;;;6187471;23;20001;-82
2023/01/26 05:23:29;;;;;;;53.40;20.77;;;;;;;;;;6189439;23;20020;-82
2023/01/26 05:25:54;;;;;;;58.50;20.98;;;;;;;;;;6185265;23;20038;-82
2023/01/26 05:28:20;;;;;;;54.55;20.25;;;;;;;;;;6160101;23;20016;-82
2023/01/26 05:30:46;;;;;;;47.50;18.25;;;;;;;;;;6184406;23;20009;-81
2023/01/26 05:33:11;;;;;;;50.70;19.52;;;;;;;;;;6183552;23;20420;-83
2023/01/26 05:35:37;;;;;;;52.85;20.92;;;;;;;;;;6188097;23;20005;-86
2023/01/26 05:38:02;;;;;;;64.10;24.05;;;;;;;;;;6199777;23;20088;-87
2023/01/26 05:40:28;;;;;;;52.63;20.30;;;;;;;;;;6199265;23;20075;-87
2023/01/26 05:42:53;;;;;;;46.47;18.40;;;;;;;;;;6199438;23;20008;-89
2023/01/26 05:45:19;;;;;;;57.80;20.75;;;;;;;;;;6192502;23;20011;-89
2023/01/26 05:47:44;;;;;;;50.88;21.17;;;;;;;;;;6185663;23;20009;-88
2023/01/26 05:50:11;;;;;;;47.60;19.08;;;;;;;;;;6164909;23;20067;-88
2023/01/26 05:52:38;;;;;;;50.35;19.23;;;;;;;;;;6141889;23;20005;-87
2023/01/26 05:55:05;;;;;;;52.72;20.23;;;;;;;;;;6195623;23;20032;-88
2023/01/26 05:57:57;;;;;;;43.35;18.00;;;;;;;;;;6196988;23;20059;-86
2023/01/26 06:00:22;;;;;;;49.75;21.27;;;;;;;;;;6182922;23;20060;-87
2023/01/26 06:02:51;;;;;;;41.40;15.85;;;;;;;;;;6197137;23;20016;-90
2023/01/26 06:05:39;;;;;;;46.72;18.55;;;;;;;;;;6185321;23;20498;-83
2023/01/26 06:08:09;;;;;;;39.95;14.93;;;;;;;;;;6146898;23;20051;-90
2023/01/26 06:10:35;;;;;;;47.40;18.75;;;;;;;;;;6193819;23;20005;-87
2023/01/26 06:13:01;;;;;;;36.38;16.08;;;;;;;;;;6201447;23;20004;-89
2023/01/26 06:15:29;;;;;;;24.02;9.98;;;;;;;;;;6194304;23;20005;-85
2023/01/26 06:17:56;;;;;;;41.08;15.85;;;;;;;;;;6165857;23;20001;-85
2023/01/26 06:20:21;;;;;;;41.65;18.17;;;;;;;;;;6169369;23;20090;-87
2023/01/26 06:22:47;;;;;;;37.05;13.38;;;;;;;;;;6191742;23;20555;-85
2023/01/26 06:25:13;;;;;;;35.88;14.50;;;;;;;;;;6199202;23;20040;-86
2023/01/26 06:27:40;;;;;;;38.83;14.02;;;;;;;;;;6204334;23;20001;-85
2023/01/26 06:30:07;;;;;;;29.25;12.13;;;;;;;;;;6207537;23;20008;-86
2023/01/26 06:32:33;;;;;;;38.25;16.35;;;;;;;;;;6202131;23;20001;-81
2023/01/26 06:34:59;;;;;;;30.92;11.20;;;;;;;;;;6164305;23;20016;-85
2023/01/26 06:37:25;;;;;;;36.05;14.77;;;;;;;;;;6192353;23;20076;-86
2023/01/26 06:39:51;;;;;;;38.13;16.58;;;;;;;;;;6207022;23;20033;-86
2023/01/26 06:42:16;;;;;;;28.08;12.05;;;;;;;;;;6209371;23;20032;-87
2023/01/26 06:44:42;;;;;;;30.05;12.10;;;;;;;;;;6202530;23;20608;-85
2023/01/26 06:47:08;;;;;;;35.22;13.82;;;;;;;;;;6194086;23;20009;-87
2023/01/26 06:49:34;;;;;;;45.28;17.13;;;;;;;;;;6176033;23;20032;-86
2023/01/26 06:52:26;;;;;;;44.28;19.65;;;;;;;;;;6177346;23;19993;-89
2023/01/26 06:54:51;;;;;;;42.00;16.08;;;;;;;;;;6201728;23;20061;-86
2023/01/26 06:57:17;;;;;;;40.00;15.52;;;;;;;;;;6206054;23;20001;-89
2023/01/26 06:59:42;;;;;;;41.65;18.35;;;;;;;;;;6200672;23;20009;-87
2023/01/26 07:02:16;;;;;;;38.33;15.55;;;;;;;;;;6205643;23;20044;-87
2023/01/26 07:04:42;;;;;;;47.15;18.38;;;;;;;;;;6208795;23;20008;-88
2023/01/26 07:07:07;;;;;;;39.15;15.98;;;;;;;;;;6205524;23;20080;-86
2023/01/26 07:09:34;;;;;;;42.20;16.73;;;;;;;;;;6196851;23;20009;-82
2023/01/26 07:11:59;;;;;;;40.55;17.20;;;;;;;;;;6196686;23;20483;-89
2023/01/26 07:14:26;;;;;;;39.33;15.60;;;;;;;;;;6195424;23;20036;-87
2023/01/26 07:16:52;;;;;;;38.10;17.08;;;;;;;;;;6191725;23;20409;-85
2023/01/26 07:19:28;;;;;;;42.85;16.35;;;;;;;;;;6193948;23;20068;-87
2023/01/26 07:22:03;;;;;;;33.75;14.70;;;;;;;;;;6171462;23;20068;-87
2023/01/26 07:24:28;;;;;;;34.80;14.35;;;;;;;;;;6195285;23;20050;-85
2023/01/26 07:27:09;;;;;;;25.45;9.48;;;;;;;;;;6199909;23;20005;-90
2023/01/26 07:29:34;;;;;;;34.38;13.48;;;;;;;;;;6177079;23;20013;-86
2023/01/26 07:32:00;;;;;;;41.97;18.30;;;;;;;;;;6152178;23;20012;-84
2023/01/26 07:34:25;;;;;;;28.73;11.50;;;;;;;;;;6202041;23;20009;-85
2023/01/26 07:36:51;;;;;;;41.58;17.17;;;;;;;;;;6205713;23;20009;-83
2023/01/26 07:39:17;;;;;;;40.20;16.60;;;;;;;;;;6197570;23;20005;-88
2023/01/26 07:41:43;;;;;;;41.85;17.45;;;;;;;;;;6190664;23;20005;-88
2023/01/26 07:44:09;;;;;;;31.08;12.55;;;;;;;;;;6163545;23;20103;-84
2023/01/26 07:46:35;;;;;;;33.22;13.18;;;;;;;;;;6188305;23;20350;-83
2023/01/26 07:49:00;;;;;;;30.13;12.00;;;;;;;;;;6196407;23;20005;-88
2023/01/26 07:51:26;;;;;;;34.17;13.77;;;;;;;;;;6194943;23;20391;-86
2023/01/26 07:53:51;;;;;;;32.90;12.68;;;;;;;;;;6197804;23;20344;-89
2023/01/26 07:56:20;;;;;;;29.83;13.10;;;;;;;;;;6190281;23;20463;-86
2023/01/26 07:58:51;;;;;;;32.35;14.18;;;;;;;;;;6185844;23;20012;-86
2023/01/26 08:01:17;;;;;;;29.45;12.95;;;;;;;;;;6188426;23;20412;-86
2023/01/26 08:03:44;;;;;;;32.88;12.85;;;;;;;;;;6196535;23;20001;-84
2023/01/26 08:06:10;;;;;;;30.35;10.93;;;;;;;;;;6193891;23;20005;-82
2023/01/26 08:08:36;;;;;;;34.05;13.40;;;;;;;;;;6139011;23;20032;-84
2023/01/26 08:11:02;;;;;;;31.98;12.65;;;;;;;;;;6194485;23;20071;-88
2023/01/26 08:13:28;;;;;;;30.55;13.73;;;;;;;;;;6191499;23;19997;-87
2023/01/26 08:15:53;;;;;;;34.65;14.38;;;;;;;;;;6162274;23;20437;-85
2023/01/26 08:18:19;;;;;;;29.77;11.30;;;;;;;;;;6188075;23;20001;-85
2023/01/26 08:20:54;;;;;;;20.83;8.88;;;;;;;;;;6189951;23;20009;-89
2023/01/26 08:23:19;;;;;;;34.53;13.30;;;;;;;;;;6193390;23;20325;-86
2023/01/26 08:25:45;;;;;;;32.25;13.13;;;;;;;;;;6190373;23;19998;-87
2023/01/26 08:28:11;;;;;;;34.75;14.10;;;;;;;;;;6191101;23;20403;-87
2023/01/26 08:30:36;;;;;;;36.95;14.38;;;;;;;;;;6199414;23;20396;-85
2023/01/26 08:33:02;;;;;;;27.58;12.23;;;;;;;;;;6195141;23;20467;-90
2023/01/26 08:35:29;;;;;;;30.77;12.70;;;;;;;;;;6162904;23;20147;-85
2023/01/26 08:37:55;;;;;;;44.33;16.52;;;;;;;;;;6191099;23;20005;-85
2023/01/26 08:40:20;;;;;;;34.80;15.13;;;;;;;;;;6135661;23;20009;-85
2023/01/26 08:42:45;;;;;;;29.20;13.25;;;;;;;;;;6185572;23;20008;-85
2023/01/26 08:45:12;;;;;;;34.72;14.57;;;;;;;;;;6188221;23;20005;-86
2023/01/26 08:47:40;;;;;;;36.50;13.77;;;;;;;;;;6188676;23;20005;-84
2023/01/26 08:50:07;;;;;;;38.15;14.35;;;;;;;;;;6198676;23;20009;-86
2023/01/26 08:52:32;;;;;;;37.38;15.43;;;;;;;;;;6187326;23;20009;-87
2023/01/26 08:55:01;;;;;;;39.40;17.20;;;;;;;;;;6191205;23;20475;-87
2023/01/26 08:57:27;;;;;;;40.75;15.75;;;;;;;;;;6189286;23;20016;-87
2023/01/26 08:59:57;;;;;;;30.73;13.25;;;;;;;;;;6186439;23;20506;-86
2023/01/26 09:02:23;;;;;;;39.38;15.50;;;;;;;;;;6185418;23;20009;-86
2023/01/26 09:04:48;;;;;;;24.48;10.50;;;;;;;;;;6185317;23;20087;-86
2023/01/26 09:07:14;;;;;;;32.45;13.82;;;;;;;;;;6184047;23;20489;-84
2023/01/26 09:09:39;;;;;;;36.67;12.82;;;;;;;;;;6185221;23;20005;-84
2023/01/26 09:12:05;;;;;;;34.35;14.02;;;;;;;;;;6188284;23;20059;-85
2023/01/26 09:14:30;;;;;;;47.13;18.88;;;;;;;;;;6180290;23;20001;-83
2023/01/26 09:16:56;;;;;;;43.15;15.95;;;;;;;;;;6180911;23;20383;-85
2023/01/26 09:19:23;;;;;;;23.80;9.90;;;;;;;;;;6181005;23;20093;-84
2023/01/26 09:21:52;;;;;;;38.40;14.93;;;;;;;;;;6187556;23;20020;-85
2023/01/26 09:24:19;;;;;;;36.88;15.52;;;;;;;;;;6186666;23;20001;-89
2023/01/26 09:26:44;;;;;;;33.25;13.90;;;;;;;;;;6189632;23;20071;-88
2023/01/26 09:29:10;;;;;;;37.38;13.07;;;;;;;;;;6190954;23;20444;-86
2023/01/26 09:31:35;;;;;;;33.70;12.98;;;;;;;;;;6190062;23;20017;-86
2023/01/26 09:34:02;;;;;;;37.67;13.90;;;;;;;;;;6190046;23;20001;-81
2023/01/26 09:36:27;;;;;;;37.03;15.00;;;;;;;;;;6191159;23;20016;-86
2023/01/26 09:38:56;;;;;;;31.30;12.40;;;;;;;;;;6139904;23;20017;-85
2023/01/26 09:41:33;;;;;;;34.97;14.10;;;;;;;;;;6166002;23;20428;-87
2023/01/26 09:44:25;;;;;;;35.67;14.18;;;;;;;;;;6189385;23;20348;-88
2023/01/26 09:46:56;;;;;;;33.78;14.85;;;;;;;;;;6179546;23;20001;-89
2023/01/26 09:49:44;;;;;;;41.63;17.02;;;;;;;;;;6198136;23;20012;-88
2023/01/26 09:52:12;;;;;;;41.25;16.08;;;;;;;;;;6190358;23;20540;-88
2023/01/26 09:54:40;;;;;;;38.33;14.48;;;;;;;;;;6190268;23;20044;-87
2023/01/26 09:57:18;;;;;;;34.80;14.20;;;;;;;;;;6167709;23;20001;-87
2023/01/26 10:00:03;;;;;;;35.08;15.65;;;;;;;;;;6192185;23;20032;-86
2023/01/26 10:02:41;;;;;;;24.60;9.63;;;;;;;;;;6139629;23;20009;-87
2023/01/26 10:05:28;;;;;;;42.20;18.50;;;;;;;;;;6189929;23;20088;-87
2023/01/26 10:07:54;;;;;;;43.65;16.67;;;;;;;;;;6195638;23;20016;-87
2023/01/26 10:10:29;;;;;;;35.70;14.20;;;;;;;;;;6192781;23;20056;-88
2023/01/26 10:12:55;;;;;;;46.53;18.88;;;;;;;;;;6167804;23;20068;-89
2023/01/26 10:15:51;;;;;;;37.88;15.38;;;;;;;;;;6189281;23;20005;-88
2023/01/26 10:18:45;;;;;;;49.70;20.58;;;;;;;;;;6168789;23;20040;-89
2023/01/26 10:21:13;;;;;;;41.15;15.85;;;;;;;;;;6192702;23;20055;-87
2023/01/26 10:23:42;;;;;;;40.88;15.40;;;;;;;;;;6193345;23;20004;-87
2023/01/26 10:26:11;;;;;;;34.92;13.45;;;;;;;;;;6186550;23;20039;-84
2023/01/26 10:28:37;;;;;;;37.58;16.10;;;;;;;;;;6189279;23;20016;-86
2023/01/26 10:31:04;;;;;;;40.13;16.65;;;;;;;;;;6166576;23;20009;-88
2023/01/26 10:33:34;;;;;;;30.08;13.57;;;;;;;;;;6196781;23;19997;-86
2023/01/26 10:36:02;;;;;;;35.70;15.48;;;;;;;;;;6200469;23;19997;-87
2023/01/26 10:38:38;;;;;;;42.78;16.25;;;;;;;;;;6179106;23;20001;-85
2023/01/26 10:41:05;;;;;;;35.10;12.65;;;;;;;;;;6205364;23;19985;-85
2023/01/26 10:43:35;;;;;;;33.83;14.25;;;;;;;;;;6204059;23;19997;-86
2023/01/26 10:46:02;;;;;;;35.63;14.43;;;;;;;;;;6178026;23;20563;-85
2023/01/26 10:48:28;;;;;;;34.83;14.82;;;;;;;;;;6206457;23;19993;-85
2023/01/26 10:50:53;;;;;;;34.13;14.77;;;;;;;;;;6204797;23;20000;-84
2023/01/26 10:53:23;;;;;;;45.75;20.48;;;;;;;;;;6205908;23;20000;-89
2023/01/26 10:56:06;;;;;;;38.65;17.20;;;;;;;;;;6204010;23;20004;-87
2023/01/26 10:58:41;;;;;;;42.25;18.45;;;;;;;;;;6202832;23;20009;-86
2023/01/26 11:01:11;;;;;;;31.23;12.93;;;;;;;;;;6203946;23;20396;-86
2023/01/26 11:03:39;;;;;;;40.28;14.90;;;;;;;;;;6181768;23;20012;-86
2023/01/26 11:06:22;;;;;;;21.52;9.38;;;;;;;;;;6204807;23;20009;-84
2023/01/26 11:08:47;;;;;;;39.35;16.02;;;;;;;;;;6198728;23;20001;-85
2023/01/26 11:11:26;;;;;;;44.60;18.50;;;;;;;;;;6193592;23;20083;-86
2023/01/26 11:14:14;;;;;;;40.00;16.55;;;;;;;;;;6188757;23;20001;-85
2023/01/26 11:16:53;;;;;;;40.38;16.60;;;;;;;;;;6166960;23;20001;-87
2023/01/26 11:19:49;;;;;;;35.40;14.05;;;;;;;;;;6188274;23;20012;-83
2023/01/26 11:22:20;;;;;;;29.75;12.15;;;;;;;;;;6189187;23;20016;-86
2023/01/26 11:25:29;;;;;;;32.65;14.32;;;;;;;;;;6163276;23;20015;-86
2023/01/26 11:28:36;;;;;;;34.83;15.68;;;;;;;;;;6135010;23;20009;-86
2023/01/26 11:31:11;;;;;;;35.97;15.18;;;;;;;;;;6189553;23;20005;-86
2023/01/26 11:33:51;;;;;;;42.13;17.92;;;;;;;;;;6186515;23;20004;-86
2023/01/26 11:39:23;;;;;;;41.80;18.10;;;;;;;;;;6187081;23;20019;-90
2023/01/26 11:42:07;;;;;;;27.60;13.90;;;;;;;;;;6186249;23;20338;-87
2023/01/26 11:44:55;;;;;;;28.27;11.73;;;;;;;;;;6186616;23;20061;-90
2023/01/26 11:47:36;;;;;;;29.92;13.07;;;;;;;;;;6185269;23;20008;-87
2023/01/26 11:50:20;;;;;;;39.38;14.88;;;;;;;;;;6169386;23;20329;-87
2023/01/26 11:53:23;;;;;;;38.75;17.17;;;;;;;;;;6187203;23;20108;-89
2023/01/26 11:56:05;;;;;;;55.75;19.40;;;;;;;;;;6186200;23;20001;-89
2023/01/26 11:58:36;;;;;;;32.88;11.98;;;;;;;;;;6184616;23;20012;-88
2023/01/26 12:01:09;;;;;;;31.98;13.80;;;;;;;;;;6161601;23;20004;-88
2023/01/26 12:03:43;;;;;;;30.98;13.68;;;;;;;;;;6184375;23;20028;-88
2023/01/26 12:06:35;;;;;;;29.02;12.95;;;;;;;;;;6157869;23;20084;-87
2023/01/26 12:09:17;;;;;;;31.08;14.18;;;;;;;;;;6193434;23;20075;-89
2023/01/26 12:11:57;;;;;;;37.58;17.08;;;;;;;;;;6187482;23;20341;-89
2023/01/26 12:14:22;;;;;;;27.77;11.93;;;;;;;;;;6184784;23;20053;-88
2023/01/26 12:17:32;;;;;;;30.33;14.05;;;;;;;;;;6185040;23;20321;-87
2023/01/26 12:20:22;;;;;;;32.87;14.37;;;;;;;;;;6182660;23;20040;-88
2023/01/26 12:23:22;;;;;;;34.30;13.23;;;;;;;;;;6186587;23;19997;-87
2023/01/26 12:25:49;;;;;;;28.87;12.60;;;;;;;;;;6189677;23;20052;-86
2023/01/26 12:28:27;;;;;;;21.40;9.30;;;;;;;;;;6199139;23;20077;-86
2023/01/26 12:31:14;;;;;;;30.73;13.50;;;;;;;;;;6191537;23;20001;-82
2023/01/26 12:33:40;;;;;;;34.17;14.55;;;;;;;;;;6181763;23;20009;-81
2023/01/26 12:36:42;;;;;;;29.45;13.95;;;;;;;;;;6183406;23;20008;-85
2023/01/26 12:39:34;;;;;;;32.60;15.13;;;;;;;;;;6187384;23;20009;-85
2023/01/26 12:42:13;;;;;;;33.50;12.40;;;;;;;;;;6184728;23;19997;-86
2023/01/26 12:44:51;;;;;;;36.38;14.50;;;;;;;;;;6181416;23;20016;-82
2023/01/26 12:47:36;;;;;;;31.27;12.32;;;;;;;;;;6185759;23;20007;-85
2023/01/26 12:50:21;;;;;;;37.20;16.23;;;;;;;;;;6197536;23;20040;-85
2023/01/26 12:53:08;;;;;;;39.00;17.42;;;;;;;;;;6191490;23;20009;-85
2023/01/26 12:55:43;;;;;;;38.95;17.80;;;;;;;;;;6173431;23;20008;-86
2023/01/26 12:58:15;;;;;;;39.35;16.70;;;;;;;;;;6189146;23;20013;-85
2023/01/26 13:01:14;;;;;;;38.72;15.07;;;;;;;;;;6141351;23;20012;-85
2023/01/26 13:03:44;;;;;;;37.78;15.25;;;;;;;;;;6164406;23;20039;-83
2023/01/26 13:06:13;;;;;;;34.67;14.60;;;;;;;;;;6160916;23;20075;-83
2023/01/26 13:08:40;;;;;;;23.80;10.40;;;;;;;;;;6196651;23;20013;-90
2023/01/26 13:11:07;;;;;;;34.17;15.20;;;;;;;;;;6205644;23;20028;-88
2023/01/26 13:13:34;;;;;;;37.47;15.85;;;;;;;;;;6153638;23;20069;-91
2023/01/26 13:16:15;;;;;;;30.02;12.52;;;;;;;;;;6206461;23;20005;-88
2023/01/26 13:18:52;;;;;;;45.17;17.30;;;;;;;;;;6197640;23;20008;-89
2023/01/26 13:21:40;;;;;;;35.05;15.80;;;;;;;;;;6182555;23;20001;-87
2023/01/26 13:24:15;;;;;;;39.83;17.40;;;;;;;;;;6182316;23;20024;-87
2023/01/26 13:26:41;;;;;;;37.25;15.98;;;;;;;;;;6186092;23;20020;-88
2023/01/26 13:29:26;;;;;;;42.30;17.70;;;;;;;;;;6194019;23;20429;-87
2023/01/26 13:31:53;;;;;;;37.88;16.02;;;;;;;;;;6185866;23;20023;-86
2023/01/26 13:34:21;;;;;;;38.22;17.02;;;;;;;;;;6184301;23;20063;-84
2023/01/26 13:36:47;;;;;;;50.88;19.35;;;;;;;;;;6161013;23;20352;-85
2023/01/26 13:39:21;;;;;;;48.10;19.30;;;;;;;;;;6203504;23;20012;-86
2023/01/26 13:41:46;;;;;;;45.83;18.05;;;;;;;;;;6168901;23;20005;-88
2023/01/26 13:44:17;;;;;;;37.92;16.40;;;;;;;;;;6179092;23;20008;-91
2023/01/26 13:46:55;;;;;;;46.95;20.48;;;;;;;;;;6167516;23;20013;-91
2023/01/26 13:49:40;;;;;;;46.03;19.67;;;;;;;;;;6203199;23;20012;-87
2023/01/26 13:52:25;;;;;;;33.67;12.90;;;;;;;;;;6141788;23;20009;-87
2023/01/26 13:54:56;;;;;;;52.55;21.10;;;;;;;;;;6186049;23;20001;-85
2023/01/26 13:57:26;;;;;;;51.10;21.70;;;;;;;;;;6161764;23;20009;-85
2023/01/26 13:59:57;;;;;;;40.45;17.20;;;;;;;;;;6187778;23;20344;-89
2023/01/26 14:02:27;;;;;;;37.28;16.60;;;;;;;;;;6186951;23;20001;-84
2023/01/26 14:04:54;;;;;;;33.58;15.90;;;;;;;;;;6185393;23;20349;-85
2023/01/26 14:07:22;;;;;;;45.58;18.92;;;;;;;;;;6158852;23;20072;-80
2023/01/26 14:09:49;;;;;;;50.15;20.35;;;;;;;;;;6184012;23;20020;-83
2023/01/26 14:12:22;;;;;;;51.22;19.98;;;;;;;;;;6158826;23;20005;-82
2023/01/26 14:14:50;;;;;;;47.92;22.25;;;;;;;;;;6159422;23;20025;-83
2023/01/26 14:17:24;;;;;;;54.50;21.65;;;;;;;;;;6185662;23;20012;-84
2023/01/26 14:19:50;;;;;;;61.70;24.52;;;;;;;;;;6186237;23;20409;-81
2023/01/26 14:22:16;;;;;;;53.13;23.20;;;;;;;;;;6167177;23;20100;-83
2023/01/26 14:24:43;;;;;;;58.53;22.27;;;;;;;;;;6185423;23;19997;-83
2023/01/26 14:27:32;;;;;;;53.58;22.65;;;;;;;;;;6158899;23;20013;-83
2023/01/26 14:29:58;;;;;;;54.45;21.13;;;;;;;;;;6185021;23;20038;-83
2023/01/26 14:32:24;;;;;;;53.90;21.45;;;;;;;;;;6158091;23;20001;-83
2023/01/26 14:34:51;;;;;;;35.47;13.77;;;;;;;;;;6183375;23;20082;-82
2023/01/26 14:37:16;;;;;;;61.28;23.88;;;;;;;;;;6184630;23;20009;-83
2023/01/26 14:39:44;;;;;;;57.75;20.90;;;;;;;;;;6184468;23;20068;-83
2023/01/26 14:42:13;;;;;;;53.65;20.20;;;;;;;;;;6182345;23;20005;-82
2023/01/26 14:44:38;;;;;;;53.25;21.00;;;;;;;;;;6183638;23;20079;-83
2023/01/26 14:47:29;;;;;;;57.13;21.77;;;;;;;;;;6158812;23;20348;-82
2023/01/26 14:50:02;;;;;;;65.07;23.17;;;;;;;;;;6184157;23;20046;-82
2023/01/26 14:52:38;;;;;;;65.88;24.30;;;;;;;;;;6158252;23;20004;-83
2023/01/26 14:55:31;;;;;;;66.35;26.20;;;;;;;;;;6183195;23;20036;-83
2023/01/26 14:57:57;;;;;;;62.25;22.40;;;;;;;;;;6182495;23;20440;-82
2023/01/26 15:00:25;;;;;;;55.65;20.67;;;;;;;;;;6158418;23;20055;-81
2023/01/26 15:02:52;;;;;;;59.35;21.60;;;;;;;;;;6184561;23;20425;-82
2023/01/26 15:05:19;;;;;;;65.97;24.02;;;;;;;;;;6187990;23;20023;-84
2023/01/26 15:07:54;;;;;;;45.55;17.10;;;;;;;;;;6161855;23;20005;-82
2023/01/26 15:10:39;;;;;;;53.40;21.70;;;;;;;;;;6190112;23;19997;-82
2023/01/26 15:13:14;;;;;;;74.35;25.35;;;;;;;;;;6188622;23;20036;-80
2023/01/26 15:15:58;;;;;;;64.22;25.40;;;;;;;;;;6194810;23;20416;-82
2023/01/26 15:18:28;;;;;;;66.30;25.42;;;;;;;;;;6162235;23;20013;-82
2023/01/26 15:21:10;;;;;;;64.90;23.10;;;;;;;;;;6133782;23;20005;-81
2023/01/26 15:23:36;;;;;;;54.35;21.38;;;;;;;;;;6182392;23;20236;-81
2023/01/26 15:26:13;;;;;;;61.78;21.40;;;;;;;;;;6158508;23;20001;-83